Maple, North Dakota
Current Conditions -  °F | °C
As of 11:35 AM on Wednesday 26 Nov 2014 (Local Time) from KGWR Reporting Station
Broken Clouds Broken Clouds  
Wind Chill: -9°   Ceiling: 7000
Heat Index:   Visibility: 10mi
Dew Point: -4°   Wind: 16mph
Humidity: 57%   Direction: 360°N
Pressure: 30.38"   Gusts: NA
Location:  46.1988°N, 98.3822°W
Report Text: KGWR 261735Z AUTO 36014KT 10SM FEW048 SCT060 BKN070 M13/M20 A3038 RMK A01 P000
Loading
Personal Weather Stations






























Interactive Weather Map New forecast layout! Learn more

10-Day Weather Forecast

Advertisements
Track Severe Weather on mobile